sensor_id;sensor_type;location;lat;lon;timestamp;P1;durP1;ratioP1;P2;durP2;ratioP2
1276;SDS011;631;51.024;13.826;2022-12-16T00:01:37;58.72;;;41.85;;
1276;SDS011;631;51.024;13.826;2022-12-16T00:04:03;59.40;;;42.40;;
1276;SDS011;631;51.024;13.826;2022-12-16T00:06:29;66.23;;;45.40;;
1276;SDS011;631;51.024;13.826;2022-12-16T00:08:57;70.50;;;44.65;;
1276;SDS011;631;51.024;13.826;2022-12-16T00:11:23;71.95;;;43.08;;
1276;SDS011;631;51.024;13.826;2022-12-16T00:13:49;66.00;;;45.37;;
1276;SDS011;631;51.024;13.826;2022-12-16T00:16:15;62.35;;;44.65;;
1276;SDS011;631;51.024;13.826;2022-12-16T00:18:42;70.10;;;45.55;;
1276;SDS011;631;51.024;13.826;2022-12-16T00:21:08;59.90;;;42.45;;
1276;SDS011;631;51.024;13.826;2022-12-16T00:23:34;62.10;;;42.15;;
1276;SDS011;631;51.024;13.826;2022-12-16T00:26:03;65.18;;;44.88;;
1276;SDS011;631;51.024;13.826;2022-12-16T00:28:28;65.00;;;44.10;;
1276;SDS011;631;51.024;13.826;2022-12-16T00:30:54;68.20;;;44.40;;
1276;SDS011;631;51.024;13.826;2022-12-16T00:33:21;65.22;;;45.47;;
1276;SDS011;631;51.024;13.826;2022-12-16T00:35:48;64.00;;;42.72;;
1276;SDS011;631;51.024;13.826;2022-12-16T00:38:14;59.77;;;43.33;;
1276;SDS011;631;51.024;13.826;2022-12-16T00:40:40;71.22;;;44.45;;
1276;SDS011;631;51.024;13.826;2022-12-16T00:43:06;68.63;;;45.47;;
1276;SDS011;631;51.024;13.826;2022-12-16T00:45:31;65.70;;;45.43;;
1276;SDS011;631;51.024;13.826;2022-12-16T00:47:57;67.30;;;44.63;;
1276;SDS011;631;51.024;13.826;2022-12-16T00:50:23;67.67;;;44.30;;
1276;SDS011;631;51.024;13.826;2022-12-16T00:52:49;58.87;;;42.50;;
1276;SDS011;631;51.024;13.826;2022-12-16T00:55:15;64.93;;;43.90;;
1276;SDS011;631;51.024;13.826;2022-12-16T00:57:41;69.68;;;44.97;;
1276;SDS011;631;51.024;13.826;2022-12-16T01:00:07;67.20;;;45.30;;
1276;SDS011;631;51.024;13.826;2022-12-16T01:02:40;65.85;;;44.17;;
1276;SDS011;631;51.024;13.826;2022-12-16T01:05:11;63.28;;;44.80;;
1276;SDS011;631;51.024;13.826;2022-12-16T01:07:38;66.75;;;44.15;;
1276;SDS011;631;51.024;13.826;2022-12-16T01:10:05;67.57;;;45.07;;
1276;SDS011;631;51.024;13.826;2022-12-16T01:12:31;66.72;;;44.28;;
1276;SDS011;631;51.024;13.826;2022-12-16T01:14:58;69.95;;;45.42;;
1276;SDS011;631;51.024;13.826;2022-12-16T01:17:24;66.30;;;43.25;;
1276;SDS011;631;51.024;13.826;2022-12-16T01:19:51;63.20;;;44.80;;
1276;SDS011;631;51.024;13.826;2022-12-16T01:22:17;65.25;;;44.15;;
1276;SDS011;631;51.024;13.826;2022-12-16T01:24:43;67.57;;;45.38;;
1276;SDS011;631;51.024;13.826;2022-12-16T01:27:09;63.15;;;43.47;;
1276;SDS011;631;51.024;13.826;2022-12-16T01:29:35;63.28;;;43.67;;
1276;SDS011;631;51.024;13.826;2022-12-16T01:32:01;69.30;;;43.93;;
1276;SDS011;631;51.024;13.826;2022-12-16T01:34:27;62.47;;;42.63;;
1276;SDS011;631;51.024;13.826;2022-12-16T01:36:52;70.87;;;45.37;;
1276;SDS011;631;51.024;13.826;2022-12-16T01:39:18;67.13;;;43.77;;
1276;SDS011;631;51.024;13.826;2022-12-16T01:41:43;65.57;;;44.17;;
1276;SDS011;631;51.024;13.826;2022-12-16T01:44:16;67.77;;;44.73;;
1276;SDS011;631;51.024;13.826;2022-12-16T01:46:48;65.70;;;45.42;;
1276;SDS011;631;51.024;13.826;2022-12-16T01:49:38;64.97;;;44.65;;
1276;SDS011;631;51.024;13.826;2022-12-16T01:52:15;69.90;;;45.15;;
1276;SDS011;631;51.024;13.826;2022-12-16T01:54:48;62.55;;;43.28;;
1276;SDS011;631;51.024;13.826;2022-12-16T01:57:19;64.47;;;45.70;;
1276;SDS011;631;51.024;13.826;2022-12-16T01:59:50;69.40;;;45.92;;
1276;SDS011;631;51.024;13.826;2022-12-16T02:02:17;70.85;;;45.33;;
1276;SDS011;631;51.024;13.826;2022-12-16T02:04:44;62.60;;;42.88;;
1276;SDS011;631;51.024;13.826;2022-12-16T02:07:28;67.95;;;44.40;;
1276;SDS011;631;51.024;13.826;2022-12-16T02:09:54;64.43;;;44.43;;
1276;SDS011;631;51.024;13.826;2022-12-16T02:20:29;68.18;;;43.75;;
1276;SDS011;631;51.024;13.826;2022-12-16T02:23:27;62.53;;;44.40;;
1276;SDS011;631;51.024;13.826;2022-12-16T02:40:35;67.40;;;45.72;;
1276;SDS011;631;51.024;13.826;2022-12-16T02:43:10;58.08;;;42.75;;
1276;SDS011;631;51.024;13.826;2022-12-16T02:45:46;70.75;;;45.42;;
1276;SDS011;631;51.024;13.826;2022-12-16T02:48:12;67.80;;;45.58;;
1276;SDS011;631;51.024;13.826;2022-12-16T02:50:39;65.07;;;44.83;;
1276;SDS011;631;51.024;13.826;2022-12-16T02:53:22;65.43;;;45.35;;
1276;SDS011;631;51.024;13.826;2022-12-16T03:01:24;62.08;;;41.10;;
1276;SDS011;631;51.024;13.826;2022-12-16T03:06:34;64.70;;;44.38;;
1276;SDS011;631;51.024;13.826;2022-12-16T03:09:04;61.95;;;43.20;;
1276;SDS011;631;51.024;13.826;2022-12-16T03:11:33;60.15;;;44.45;;
1276;SDS011;631;51.024;13.826;2022-12-16T03:14:00;67.05;;;44.50;;
1276;SDS011;631;51.024;13.826;2022-12-16T03:16:29;62.22;;;43.75;;
1276;SDS011;631;51.024;13.826;2022-12-16T03:18:57;63.60;;;42.45;;
1276;SDS011;631;51.024;13.826;2022-12-16T03:21:28;62.58;;;42.22;;
1276;SDS011;631;51.024;13.826;2022-12-16T03:24:01;62.58;;;45.20;;
1276;SDS011;631;51.024;13.826;2022-12-16T03:26:36;65.43;;;43.95;;
1276;SDS011;631;51.024;13.826;2022-12-16T03:29:09;61.92;;;42.50;;
1276;SDS011;631;51.024;13.826;2022-12-16T03:31:55;71.35;;;44.90;;
1276;SDS011;631;51.024;13.826;2022-12-16T03:34:31;60.95;;;43.83;;
1276;SDS011;631;51.024;13.826;2022-12-16T03:37:19;66.32;;;42.67;;
1276;SDS011;631;51.024;13.826;2022-12-16T03:39:49;63.92;;;43.28;;
1276;SDS011;631;51.024;13.826;2022-12-16T03:42:17;60.95;;;44.13;;
1276;SDS011;631;51.024;13.826;2022-12-16T03:44:43;62.70;;;41.37;;
1276;SDS011;631;51.024;13.826;2022-12-16T03:47:10;65.85;;;42.28;;
1276;SDS011;631;51.024;13.826;2022-12-16T03:49:37;59.28;;;42.45;;
1276;SDS011;631;51.024;13.826;2022-12-16T03:52:03;58.60;;;43.03;;
1276;SDS011;631;51.024;13.826;2022-12-16T03:54:29;67.30;;;42.95;;
1276;SDS011;631;51.024;13.826;2022-12-16T03:56:55;56.23;;;41.10;;
1276;SDS011;631;51.024;13.826;2022-12-16T03:59:21;61.27;;;43.27;;
1276;SDS011;631;51.024;13.826;2022-12-16T04:01:46;62.63;;;42.90;;
1276;SDS011;631;51.024;13.826;2022-12-16T04:04:12;63.37;;;42.80;;
1276;SDS011;631;51.024;13.826;2022-12-16T04:06:38;60.63;;;42.10;;
1276;SDS011;631;51.024;13.826;2022-12-16T04:09:03;64.50;;;42.20;;
1276;SDS011;631;51.024;13.826;2022-12-16T04:11:29;65.63;;;42.13;;
1276;SDS011;631;51.024;13.826;2022-12-16T04:14:13;57.08;;;39.53;;
1276;SDS011;631;51.024;13.826;2022-12-16T04:16:57;53.08;;;40.22;;
1276;SDS011;631;51.024;13.826;2022-12-16T04:19:42;57.83;;;41.00;;
1276;SDS011;631;51.024;13.826;2022-12-16T04:22:29;60.05;;;42.15;;
1276;SDS011;631;51.024;13.826;2022-12-16T04:25:21;62.58;;;42.45;;
1276;SDS011;631;51.024;13.826;2022-12-16T04:27:50;55.75;;;41.75;;
1276;SDS011;631;51.024;13.826;2022-12-16T04:30:16;56.10;;;40.60;;
1276;SDS011;631;51.024;13.826;2022-12-16T04:32:44;56.92;;;39.88;;
1276;SDS011;631;51.024;13.826;2022-12-16T04:35:29;57.58;;;40.58;;
1276;SDS011;631;51.024;13.826;2022-12-16T04:38:13;62.95;;;40.85;;
1276;SDS011;631;51.024;13.826;2022-12-16T04:40:57;55.15;;;40.72;;
1276;SDS011;631;51.024;13.826;2022-12-16T04:43:42;61.72;;;39.65;;
1276;SDS011;631;51.024;13.826;2022-12-16T04:46:26;56.78;;;41.00;;
1276;SDS011;631;51.024;13.826;2022-12-16T04:49:10;49.67;;;38.42;;
1276;SDS011;631;51.024;13.826;2022-12-16T04:51:54;49.30;;;36.92;;
1276;SDS011;631;51.024;13.826;2022-12-16T04:54:38;54.97;;;38.97;;
1276;SDS011;631;51.024;13.826;2022-12-16T04:57:22;51.17;;;38.75;;
1276;SDS011;631;51.024;13.826;2022-12-16T05:00:06;57.50;;;37.88;;
1276;SDS011;631;51.024;13.826;2022-12-16T05:02:51;48.38;;;37.35;;
1276;SDS011;631;51.024;13.826;2022-12-16T05:05:35;52.08;;;37.85;;
1276;SDS011;631;51.024;13.826;2022-12-16T05:08:19;56.58;;;36.78;;
1276;SDS011;631;51.024;13.826;2022-12-16T05:11:04;55.30;;;38.40;;
1276;SDS011;631;51.024;13.826;2022-12-16T05:13:48;51.63;;;37.00;;
1276;SDS011;631;51.024;13.826;2022-12-16T05:16:32;53.08;;;36.60;;
1276;SDS011;631;51.024;13.826;2022-12-16T05:19:16;49.20;;;37.00;;
1276;SDS011;631;51.024;13.826;2022-12-16T05:22:01;51.85;;;37.30;;
1276;SDS011;631;51.024;13.826;2022-12-16T05:24:45;57.92;;;40.85;;
1276;SDS011;631;51.024;13.826;2022-12-16T05:27:29;51.60;;;37.35;;
1276;SDS011;631;51.024;13.826;2022-12-16T05:30:14;56.58;;;38.33;;
1276;SDS011;631;51.024;13.826;2022-12-16T05:32:58;51.30;;;36.92;;
1276;SDS011;631;51.024;13.826;2022-12-16T05:35:42;58.72;;;40.55;;
1276;SDS011;631;51.024;13.826;2022-12-16T05:38:26;51.63;;;36.80;;
1276;SDS011;631;51.024;13.826;2022-12-16T05:41:10;52.38;;;37.30;;
1276;SDS011;631;51.024;13.826;2022-12-16T05:43:54;52.60;;;37.05;;
1276;SDS011;631;51.024;13.826;2022-12-16T05:46:38;54.25;;;39.15;;
1276;SDS011;631;51.024;13.826;2022-12-16T05:49:22;51.97;;;37.20;;
1276;SDS011;631;51.024;13.826;2022-12-16T05:52:06;47.72;;;36.20;;
1276;SDS011;631;51.024;13.826;2022-12-16T05:54:50;52.70;;;37.22;;
1276;SDS011;631;51.024;13.826;2022-12-16T05:57:54;44.60;;;35.80;;
1276;SDS011;631;51.024;13.826;2022-12-16T06:00:38;51.92;;;37.67;;
1276;SDS011;631;51.024;13.826;2022-12-16T06:03:23;55.63;;;38.88;;
1276;SDS011;631;51.024;13.826;2022-12-16T06:06:07;52.42;;;39.17;;
1276;SDS011;631;51.024;13.826;2022-12-16T06:08:51;50.40;;;37.15;;
1276;SDS011;631;51.024;13.826;2022-12-16T06:11:35;55.22;;;38.67;;
1276;SDS011;631;51.024;13.826;2022-12-16T06:14:19;57.85;;;38.75;;
1276;SDS011;631;51.024;13.826;2022-12-16T06:17:03;64.90;;;44.42;;
1276;SDS011;631;51.024;13.826;2022-12-16T06:19:48;57.85;;;40.63;;
1276;SDS011;631;51.024;13.826;2022-12-16T06:22:32;51.28;;;38.13;;
1276;SDS011;631;51.024;13.826;2022-12-16T06:25:16;56.15;;;39.47;;
1276;SDS011;631;51.024;13.826;2022-12-16T06:28:00;48.10;;;37.85;;
1276;SDS011;631;51.024;13.826;2022-12-16T06:30:44;55.10;;;39.08;;
1276;SDS011;631;51.024;13.826;2022-12-16T06:33:28;55.42;;;39.63;;
1276;SDS011;631;51.024;13.826;2022-12-16T06:36:12;52.30;;;38.97;;
1276;SDS011;631;51.024;13.826;2022-12-16T06:38:57;53.35;;;39.60;;
1276;SDS011;631;51.024;13.826;2022-12-16T06:41:41;56.55;;;38.63;;
1276;SDS011;631;51.024;13.826;2022-12-16T06:44:36;53.65;;;39.95;;
1276;SDS011;631;51.024;13.826;2022-12-16T06:47:21;58.88;;;39.70;;
1276;SDS011;631;51.024;13.826;2022-12-16T06:50:05;58.08;;;39.58;;
1276;SDS011;631;51.024;13.826;2022-12-16T06:52:49;59.50;;;40.65;;
1276;SDS011;631;51.024;13.826;2022-12-16T06:55:33;60.15;;;41.30;;
1276;SDS011;631;51.024;13.826;2022-12-16T06:58:17;57.55;;;40.42;;
1276;SDS011;631;51.024;13.826;2022-12-16T07:01:01;61.00;;;41.65;;
1276;SDS011;631;51.024;13.826;2022-12-16T07:03:45;58.08;;;39.22;;
1276;SDS011;631;51.024;13.826;2022-12-16T07:06:29;54.95;;;41.47;;
1276;SDS011;631;51.024;13.826;2022-12-16T07:09:13;59.00;;;40.63;;
1276;SDS011;631;51.024;13.826;2022-12-16T07:11:57;53.80;;;38.88;;
1276;SDS011;631;51.024;13.826;2022-12-16T07:14:42;56.72;;;38.72;;
1276;SDS011;631;51.024;13.826;2022-12-16T07:17:26;57.17;;;40.78;;
1276;SDS011;631;51.024;13.826;2022-12-16T07:20:10;59.58;;;41.60;;
1276;SDS011;631;51.024;13.826;2022-12-16T07:22:54;57.53;;;40.58;;
1276;SDS011;631;51.024;13.826;2022-12-16T07:25:38;55.55;;;39.83;;
1276;SDS011;631;51.024;13.826;2022-12-16T07:28:22;55.72;;;40.67;;
1276;SDS011;631;51.024;13.826;2022-12-16T07:31:06;58.53;;;41.70;;
1276;SDS011;631;51.024;13.826;2022-12-16T07:33:50;65.65;;;42.80;;
1276;SDS011;631;51.024;13.826;2022-12-16T07:36:34;66.68;;;44.53;;
1276;SDS011;631;51.024;13.826;2022-12-16T07:39:18;62.33;;;41.35;;
1276;SDS011;631;51.024;13.826;2022-12-16T07:42:02;61.80;;;40.40;;
1276;SDS011;631;51.024;13.826;2022-12-16T07:44:46;55.53;;;39.58;;
1276;SDS011;631;51.024;13.826;2022-12-16T07:47:30;63.33;;;46.00;;
1276;SDS011;631;51.024;13.826;2022-12-16T07:50:14;60.00;;;44.65;;
1276;SDS011;631;51.024;13.826;2022-12-16T07:52:59;54.75;;;40.33;;
1276;SDS011;631;51.024;13.826;2022-12-16T07:55:44;63.65;;;43.47;;
1276;SDS011;631;51.024;13.826;2022-12-16T07:58:28;65.68;;;44.42;;
1276;SDS011;631;51.024;13.826;2022-12-16T08:01:13;62.03;;;42.33;;
1276;SDS011;631;51.024;13.826;2022-12-16T08:03:58;65.93;;;43.28;;
1276;SDS011;631;51.024;13.826;2022-12-16T08:06:42;65.18;;;44.35;;
1276;SDS011;631;51.024;13.826;2022-12-16T08:09:26;60.33;;;42.55;;
1276;SDS011;631;51.024;13.826;2022-12-16T08:12:10;65.80;;;44.17;;
1276;SDS011;631;51.024;13.826;2022-12-16T08:14:55;68.25;;;45.53;;
1276;SDS011;631;51.024;13.826;2022-12-16T08:17:48;68.05;;;44.67;;
1276;SDS011;631;51.024;13.826;2022-12-16T08:20:34;69.50;;;43.45;;
1276;SDS011;631;51.024;13.826;2022-12-16T08:23:18;63.92;;;43.70;;
1276;SDS011;631;51.024;13.826;2022-12-16T08:26:02;65.45;;;44.05;;
1276;SDS011;631;51.024;13.826;2022-12-16T08:28:47;70.47;;;45.67;;
1276;SDS011;631;51.024;13.826;2022-12-16T08:31:32;69.78;;;46.88;;
1276;SDS011;631;51.024;13.826;2022-12-16T08:34:16;68.55;;;45.53;;
1276;SDS011;631;51.024;13.826;2022-12-16T08:37:00;74.78;;;46.08;;
1276;SDS011;631;51.024;13.826;2022-12-16T08:39:44;65.70;;;45.38;;
1276;SDS011;631;51.024;13.826;2022-12-16T08:42:29;68.55;;;45.50;;
1276;SDS011;631;51.024;13.826;2022-12-16T08:45:13;74.57;;;46.55;;
1276;SDS011;631;51.024;13.826;2022-12-16T08:47:58;74.25;;;46.40;;
1276;SDS011;631;51.024;13.826;2022-12-16T08:50:42;74.65;;;44.95;;
1276;SDS011;631;51.024;13.826;2022-12-16T08:53:26;73.22;;;47.63;;
1276;SDS011;631;51.024;13.826;2022-12-16T08:56:10;74.35;;;47.25;;
1276;SDS011;631;51.024;13.826;2022-12-16T08:58:54;76.40;;;46.78;;
1276;SDS011;631;51.024;13.826;2022-12-16T09:01:38;68.65;;;45.47;;
1276;SDS011;631;51.024;13.826;2022-12-16T09:04:39;70.93;;;45.55;;
1276;SDS011;631;51.024;13.826;2022-12-16T09:07:24;71.88;;;46.40;;
1276;SDS011;631;51.024;13.826;2022-12-16T09:10:08;79.05;;;47.28;;
1276;SDS011;631;51.024;13.826;2022-12-16T09:12:52;68.72;;;47.30;;
1276;SDS011;631;51.024;13.826;2022-12-16T09:15:36;70.93;;;45.35;;
1276;SDS011;631;51.024;13.826;2022-12-16T09:18:20;67.60;;;45.53;;
1276;SDS011;631;51.024;13.826;2022-12-16T09:21:04;65.20;;;43.75;;
1276;SDS011;631;51.024;13.826;2022-12-16T09:23:48;65.97;;;45.00;;
1276;SDS011;631;51.024;13.826;2022-12-16T09:26:32;68.85;;;46.35;;
1276;SDS011;631;51.024;13.826;2022-12-16T09:29:17;68.00;;;44.85;;
1276;SDS011;631;51.024;13.826;2022-12-16T09:32:01;71.43;;;47.08;;
1276;SDS011;631;51.024;13.826;2022-12-16T09:34:45;65.35;;;45.10;;
1276;SDS011;631;51.024;13.826;2022-12-16T09:37:29;65.90;;;46.25;;
1276;SDS011;631;51.024;13.826;2022-12-16T09:40:14;71.50;;;47.88;;
1276;SDS011;631;51.024;13.826;2022-12-16T09:45:49;67.28;;;45.95;;
1276;SDS011;631;51.024;13.826;2022-12-16T09:48:59;66.65;;;45.75;;
1276;SDS011;631;51.024;13.826;2022-12-16T09:51:46;67.57;;;46.90;;
1276;SDS011;631;51.024;13.826;2022-12-16T09:54:32;70.18;;;47.22;;
1276;SDS011;631;51.024;13.826;2022-12-16T09:57:19;68.10;;;47.08;;
1276;SDS011;631;51.024;13.826;2022-12-16T10:00:05;74.05;;;46.55;;
1276;SDS011;631;51.024;13.826;2022-12-16T10:02:55;72.47;;;47.15;;
1276;SDS011;631;51.024;13.826;2022-12-16T10:05:51;64.18;;;45.22;;
1276;SDS011;631;51.024;13.826;2022-12-16T10:08:48;66.30;;;46.53;;
1276;SDS011;631;51.024;13.826;2022-12-16T10:14:55;69.93;;;49.03;;
1276;SDS011;631;51.024;13.826;2022-12-16T10:17:55;67.53;;;44.25;;
1276;SDS011;631;51.024;13.826;2022-12-16T10:20:44;70.00;;;44.75;;
1276;SDS011;631;51.024;13.826;2022-12-16T10:26:34;59.65;;;42.45;;
1276;SDS011;631;51.024;13.826;2022-12-16T10:29:34;55.92;;;42.83;;
1276;SDS011;631;51.024;13.826;2022-12-16T10:32:26;56.95;;;42.38;;
1276;SDS011;631;51.024;13.826;2022-12-16T10:38:05;61.28;;;43.78;;
1276;SDS011;631;51.024;13.826;2022-12-16T10:41:00;54.45;;;42.60;;
1276;SDS011;631;51.024;13.826;2022-12-16T10:43:46;63.38;;;42.30;;
1276;SDS011;631;51.024;13.826;2022-12-16T10:46:32;57.95;;;43.00;;
1276;SDS011;631;51.024;13.826;2022-12-16T10:49:17;56.05;;;41.53;;
1276;SDS011;631;51.024;13.826;2022-12-16T10:52:03;55.92;;;41.20;;
1276;SDS011;631;51.024;13.826;2022-12-16T10:54:50;55.97;;;41.05;;
1276;SDS011;631;51.024;13.826;2022-12-16T10:57:57;55.72;;;40.95;;
1276;SDS011;631;51.024;13.826;2022-12-16T11:00:54;55.22;;;42.10;;
1276;SDS011;631;51.024;13.826;2022-12-16T11:03:39;61.45;;;44.42;;
1276;SDS011;631;51.024;13.826;2022-12-16T11:06:37;56.45;;;44.25;;
1276;SDS011;631;51.024;13.826;2022-12-16T11:09:26;61.08;;;43.50;;
1276;SDS011;631;51.024;13.826;2022-12-16T11:15:26;60.00;;;42.05;;
1276;SDS011;631;51.024;13.826;2022-12-16T11:18:13;62.40;;;44.40;;
1276;SDS011;631;51.024;13.826;2022-12-16T11:21:04;59.72;;;43.92;;
1276;SDS011;631;51.024;13.826;2022-12-16T11:26:56;63.95;;;44.15;;
1276;SDS011;631;51.024;13.826;2022-12-16T11:29:53;64.35;;;44.42;;
1276;SDS011;631;51.024;13.826;2022-12-16T11:32:41;61.55;;;42.60;;
1276;SDS011;631;51.024;13.826;2022-12-16T11:35:29;59.83;;;45.15;;
1276;SDS011;631;51.024;13.826;2022-12-16T11:38:58;54.47;;;41.65;;
1276;SDS011;631;51.024;13.826;2022-12-16T11:44:24;57.92;;;42.20;;
1276;SDS011;631;51.024;13.826;2022-12-16T11:50:31;58.38;;;43.72;;
1276;SDS011;631;51.024;13.826;2022-12-16T11:53:29;60.10;;;43.75;;
1276;SDS011;631;51.024;13.826;2022-12-16T11:56:23;60.63;;;44.13;;
1276;SDS011;631;51.024;13.826;2022-12-16T11:59:57;63.53;;;45.40;;
1276;SDS011;631;51.024;13.826;2022-12-16T12:02:31;68.53;;;45.28;;
1276;SDS011;631;51.024;13.826;2022-12-16T12:05:22;62.38;;;45.15;;
1276;SDS011;631;51.024;13.826;2022-12-16T12:09:00;64.75;;;46.22;;
1276;SDS011;631;51.024;13.826;2022-12-16T12:11:38;62.50;;;44.30;;
1276;SDS011;631;51.024;13.826;2022-12-16T12:14:47;58.92;;;42.30;;
1276;SDS011;631;51.024;13.826;2022-12-16T12:17:52;56.88;;;42.17;;
1276;SDS011;631;51.024;13.826;2022-12-16T12:23:42;98.85;;;65.93;;
1276;SDS011;631;51.024;13.826;2022-12-16T12:26:48;60.42;;;44.65;;
1276;SDS011;631;51.024;13.826;2022-12-16T12:48:36;63.47;;;50.10;;
1276;SDS011;631;51.024;13.826;2022-12-16T12:54:43;69.07;;;45.22;;
1276;SDS011;631;51.024;13.826;2022-12-16T12:57:35;66.43;;;45.92;;
1276;SDS011;631;51.024;13.826;2022-12-16T13:00:23;65.53;;;45.42;;
1276;SDS011;631;51.024;13.826;2022-12-16T13:03:31;61.15;;;43.90;;
1276;SDS011;631;51.024;13.826;2022-12-16T13:06:16;61.33;;;45.30;;
1276;SDS011;631;51.024;13.826;2022-12-16T13:09:02;60.42;;;44.28;;
1276;SDS011;631;51.024;13.826;2022-12-16T13:14:56;66.10;;;44.85;;
1276;SDS011;631;51.024;13.826;2022-12-16T13:23:38;60.42;;;42.35;;
1276;SDS011;631;51.024;13.826;2022-12-16T13:26:24;59.85;;;44.58;;
1276;SDS011;631;51.024;13.826;2022-12-16T13:37:55;62.10;;;43.60;;
1276;SDS011;631;51.024;13.826;2022-12-16T13:41:06;58.10;;;44.08;;
1276;SDS011;631;51.024;13.826;2022-12-16T13:44:09;63.17;;;44.47;;
1276;SDS011;631;51.024;13.826;2022-12-16T13:46:54;68.53;;;47.25;;
1276;SDS011;631;51.024;13.826;2022-12-16T13:49:49;61.88;;;43.75;;
1276;SDS011;631;51.024;13.826;2022-12-16T13:55:32;64.72;;;44.95;;
1276;SDS011;631;51.024;13.826;2022-12-16T14:04:48;69.70;;;44.03;;
1276;SDS011;631;51.024;13.826;2022-12-16T14:07:39;67.18;;;45.47;;
1276;SDS011;631;51.024;13.826;2022-12-16T14:10:32;68.35;;;45.55;;
1276;SDS011;631;51.024;13.826;2022-12-16T14:13:30;62.95;;;45.45;;
1276;SDS011;631;51.024;13.826;2022-12-16T14:25:21;59.85;;;42.30;;
1276;SDS011;631;51.024;13.826;2022-12-16T14:28:07;70.95;;;46.35;;
1276;SDS011;631;51.024;13.826;2022-12-16T14:31:04;66.35;;;45.83;;
1276;SDS011;631;51.024;13.826;2022-12-16T14:33:54;68.78;;;47.00;;
1276;SDS011;631;51.024;13.826;2022-12-16T14:36:38;65.40;;;46.33;;
1276;SDS011;631;51.024;13.826;2022-12-16T14:39:27;74.22;;;47.63;;
1276;SDS011;631;51.024;13.826;2022-12-16T14:42:21;64.45;;;45.25;;
1276;SDS011;631;51.024;13.826;2022-12-16T14:45:20;65.80;;;46.05;;
1276;SDS011;631;51.024;13.826;2022-12-16T14:48:18;75.13;;;45.35;;
1276;SDS011;631;51.024;13.826;2022-12-16T14:54:12;73.00;;;46.45;;
1276;SDS011;631;51.024;13.826;2022-12-16T14:56:58;68.75;;;45.40;;
1276;SDS011;631;51.024;13.826;2022-12-16T14:59:42;75.82;;;46.97;;
1276;SDS011;631;51.024;13.826;2022-12-16T15:02:28;71.53;;;47.83;;
1276;SDS011;631;51.024;13.826;2022-12-16T15:05:23;68.80;;;47.58;;
1276;SDS011;631;51.024;13.826;2022-12-16T15:08:13;70.40;;;45.38;;
1276;SDS011;631;51.024;13.826;2022-12-16T15:10:57;77.07;;;47.33;;
1276;SDS011;631;51.024;13.826;2022-12-16T15:13:42;62.88;;;44.85;;
1276;SDS011;631;51.024;13.826;2022-12-16T15:16:29;70.57;;;45.50;;
1276;SDS011;631;51.024;13.826;2022-12-16T15:19:17;70.20;;;47.00;;
1276;SDS011;631;51.024;13.826;2022-12-16T15:22:05;77.45;;;45.38;;
1276;SDS011;631;51.024;13.826;2022-12-16T15:24:53;69.95;;;45.05;;
1276;SDS011;631;51.024;13.826;2022-12-16T15:27:38;72.28;;;47.70;;
1276;SDS011;631;51.024;13.826;2022-12-16T15:31:04;69.97;;;46.97;;
1276;SDS011;631;51.024;13.826;2022-12-16T15:33:31;65.10;;;44.78;;
1276;SDS011;631;51.024;13.826;2022-12-16T15:36:24;74.70;;;47.97;;
1276;SDS011;631;51.024;13.826;2022-12-16T15:39:21;62.83;;;44.85;;
1276;SDS011;631;51.024;13.826;2022-12-16T15:42:29;67.90;;;46.30;;
1276;SDS011;631;51.024;13.826;2022-12-16T15:45:29;66.93;;;45.08;;
1276;SDS011;631;51.024;13.826;2022-12-16T15:48:48;69.07;;;47.55;;
1276;SDS011;631;51.024;13.826;2022-12-16T15:54:16;72.75;;;47.38;;
1276;SDS011;631;51.024;13.826;2022-12-16T15:57:02;70.35;;;45.63;;
1276;SDS011;631;51.024;13.826;2022-12-16T16:00:27;71.03;;;47.47;;
1276;SDS011;631;51.024;13.826;2022-12-16T16:03:20;72.40;;;46.50;;
1276;SDS011;631;51.024;13.826;2022-12-16T16:06:16;67.40;;;45.03;;
1276;SDS011;631;51.024;13.826;2022-12-16T16:09:15;70.32;;;46.17;;
1276;SDS011;631;51.024;13.826;2022-12-16T16:12:08;68.05;;;47.65;;
1276;SDS011;631;51.024;13.826;2022-12-16T16:14:54;65.85;;;46.95;;
1276;SDS011;631;51.024;13.826;2022-12-16T16:17:38;77.53;;;49.17;;
1276;SDS011;631;51.024;13.826;2022-12-16T16:20:22;71.63;;;47.38;;
1276;SDS011;631;51.024;13.826;2022-12-16T16:23:09;66.72;;;46.67;;
1276;SDS011;631;51.024;13.826;2022-12-16T16:25:54;74.53;;;47.38;;
1276;SDS011;631;51.024;13.826;2022-12-16T16:28:39;67.30;;;44.42;;
1276;SDS011;631;51.024;13.826;2022-12-16T16:31:23;69.00;;;46.97;;
1276;SDS011;631;51.024;13.826;2022-12-16T16:34:07;68.22;;;46.17;;
1276;SDS011;631;51.024;13.826;2022-12-16T16:36:52;68.55;;;46.80;;
1276;SDS011;631;51.024;13.826;2022-12-16T16:39:49;64.35;;;46.22;;
1276;SDS011;631;51.024;13.826;2022-12-16T16:42:33;71.40;;;48.17;;
1276;SDS011;631;51.024;13.826;2022-12-16T16:45:17;74.53;;;48.83;;
1276;SDS011;631;51.024;13.826;2022-12-16T16:48:04;75.72;;;49.75;;
1276;SDS011;631;51.024;13.826;2022-12-16T16:50:57;67.32;;;45.10;;
1276;SDS011;631;51.024;13.826;2022-12-16T16:53:42;76.07;;;48.58;;
1276;SDS011;631;51.024;13.826;2022-12-16T16:56:26;73.20;;;49.63;;
1276;SDS011;631;51.024;13.826;2022-12-16T16:59:13;74.32;;;49.20;;
1276;SDS011;631;51.024;13.826;2022-12-16T17:01:57;71.00;;;47.47;;
1276;SDS011;631;51.024;13.826;2022-12-16T17:04:42;81.63;;;50.67;;
1276;SDS011;631;51.024;13.826;2022-12-16T17:07:26;72.97;;;47.63;;
1276;SDS011;631;51.024;13.826;2022-12-16T17:10:10;71.97;;;48.97;;
1276;SDS011;631;51.024;13.826;2022-12-16T17:12:54;67.45;;;45.90;;
1276;SDS011;631;51.024;13.826;2022-12-16T17:15:38;72.70;;;48.17;;
1276;SDS011;631;51.024;13.826;2022-12-16T17:18:36;74.97;;;48.83;;
1276;SDS011;631;51.024;13.826;2022-12-16T17:21:21;61.80;;;43.65;;
1276;SDS011;631;51.024;13.826;2022-12-16T17:24:05;73.68;;;47.45;;
1276;SDS011;631;51.024;13.826;2022-12-16T17:26:49;69.43;;;46.40;;
1276;SDS011;631;51.024;13.826;2022-12-16T17:29:33;67.35;;;46.80;;
1276;SDS011;631;51.024;13.826;2022-12-16T17:32:17;69.45;;;46.17;;
1276;SDS011;631;51.024;13.826;2022-12-16T17:35:01;77.03;;;48.90;;
1276;SDS011;631;51.024;13.826;2022-12-16T17:37:46;67.28;;;45.30;;
1276;SDS011;631;51.024;13.826;2022-12-16T17:40:30;66.15;;;47.42;;
1276;SDS011;631;51.024;13.826;2022-12-16T17:43:14;70.20;;;47.72;;
1276;SDS011;631;51.024;13.826;2022-12-16T17:45:59;72.55;;;48.15;;
1276;SDS011;631;51.024;13.826;2022-12-16T17:48:52;71.63;;;47.38;;
1276;SDS011;631;51.024;13.826;2022-12-16T17:51:37;67.85;;;46.72;;
1276;SDS011;631;51.024;13.826;2022-12-16T17:54:21;67.00;;;45.28;;
1276;SDS011;631;51.024;13.826;2022-12-16T17:57:05;69.97;;;47.25;;
1276;SDS011;631;51.024;13.826;2022-12-16T17:59:49;66.97;;;47.53;;
1276;SDS011;631;51.024;13.826;2022-12-16T18:02:33;72.88;;;46.45;;
1276;SDS011;631;51.024;13.826;2022-12-16T18:05:17;67.88;;;47.30;;
1276;SDS011;631;51.024;13.826;2022-12-16T18:08:01;69.22;;;48.08;;
1276;SDS011;631;51.024;13.826;2022-12-16T18:10:49;67.93;;;47.55;;
1276;SDS011;631;51.024;13.826;2022-12-16T18:13:37;70.90;;;48.45;;
1276;SDS011;631;51.024;13.826;2022-12-16T18:16:21;65.75;;;48.03;;
1276;SDS011;631;51.024;13.826;2022-12-16T18:19:05;69.13;;;46.30;;
1276;SDS011;631;51.024;13.826;2022-12-16T18:21:49;69.95;;;46.40;;
1276;SDS011;631;51.024;13.826;2022-12-16T18:24:33;72.85;;;48.58;;
1276;SDS011;631;51.024;13.826;2022-12-16T18:27:18;72.30;;;47.85;;